»·PEaware :: N826GA KSBP-KCRQ

N826GA :: KSBP-KCRQ

FLIGHT INFORMATION

Flight Status: Arrived
Operator: Privately registered:
United States
More flights under this callsign
Pilot: Matthew M. (8235)
Aircraft: Unknown
(HA4T)
More flights by this aircraft type
Origin: KSBP San Luis Co Regl
United States
Destination: KCRQ McClellan-Palomar
United States
More flights between these airports :: More routes between these airports
Route: RZS VTU V208 OCN
File this flight plan on PilotEdge
Remarks:
Altitude:
(Current/Filed)
11,000ft
Speed:
(Current/Filed)
300kts
Departed: 12-Dec-16 10:11 AM
Arrived: 12-Dec-16 11:01 AM
Distance/Time
Traveled:
209nm/0:50
Distance/Time
To Go:
Arrived

Flight Plot

Page will automatically refresh every two minutes.

Flight plan parsing failed; only flown route is shown


Map Options




Map Legend


Flown Route
Filed Route
Departure Airport
Arrival Airport
Navaid (VOR, NDB)
Fix

Horizontal Profiles

Position Reports

Time Latitude Longitude Heading Altitude Ground
Speed
12-Dec-16 09:42 35.236838 -120.636729 128 206ft 0kts
12-Dec-16 09:43 35.236838 -120.636729 128 206ft 0kts
12-Dec-16 09:44 35.236838 -120.636729 128 206ft 0kts
12-Dec-16 09:45 35.236838 -120.636729 128 206ft 0kts
12-Dec-16 09:46 35.236838 -120.636729 128 206ft 0kts
12-Dec-16 09:47 35.236838 -120.636729 128 206ft 0kts
12-Dec-16 09:48 35.236838 -120.636729 128 206ft 0kts
12-Dec-16 09:49 35.236838 -120.636729 128 206ft 0kts
12-Dec-16 09:50 35.236838 -120.636729 128 206ft 0kts
12-Dec-16 09:51 35.236838 -120.636729 128 206ft 0kts
12-Dec-16 09:52 35.236838 -120.636729 128 206ft 0kts
12-Dec-16 09:53 35.236838 -120.636729 128 206ft 0kts
12-Dec-16 09:54 35.236838 -120.636729 128 206ft 0kts
12-Dec-16 09:55 35.236838 -120.636729 128 206ft 0kts
12-Dec-16 09:56 35.236838 -120.636729 128 206ft 0kts
12-Dec-16 09:57 35.236833 -120.636721 128 206ft 0kts
12-Dec-16 09:58 35.236243 -120.635940 172 208ft 7kts
12-Dec-16 09:59 35.236851 -120.638016 302 201ft 14kts
12-Dec-16 10:00 35.239742 -120.643100 303 181ft 17kts
12-Dec-16 10:01 35.242210 -120.647481 306 164ft 6kts
12-Dec-16 10:02 35.241995 -120.648889 149 159ft 10kts
12-Dec-16 10:03 35.237753 -120.641530 124 206ft 129kts
12-Dec-16 10:04 35.208560 -120.590874 123 4149ft 215kts
12-Dec-16 10:05 35.177894 -120.531585 123 5029ft 210kts
12-Dec-16 10:06 35.143168 -120.465057 123 5006ft 248kts
12-Dec-16 10:07 35.106719 -120.393415 123 7726ft 256kts
12-Dec-16 10:08 35.053832 -120.322911 136 7855ft 311kts
12-Dec-16 10:09 34.995338 -120.247787 136 7998ft 319kts
12-Dec-16 10:10 34.936571 -120.172665 136 8771ft 312kts
12-Dec-16 10:11 34.871614 -120.101902 146 10843ft 331kts
12-Dec-16 10:12 34.797292 -120.032982 147 10980ft 359kts
12-Dec-16 10:13 34.718189 -119.960644 147 10981ft 360kts
12-Dec-16 10:14 34.638870 -119.888395 147 10982ft 360kts
12-Dec-16 10:15 34.561300 -119.817890 147 10983ft 360kts
12-Dec-16 10:16 34.490239 -119.734624 126 10996ft 367kts
12-Dec-16 10:17 34.434016 -119.631893 125 10985ft 369kts
12-Dec-16 10:18 34.378026 -119.529033 125 10986ft 370kts
12-Dec-16 10:19 34.321782 -119.425967 125 10987ft 370kts
12-Dec-16 10:20 34.265945 -119.323663 125 10981ft 370kts
12-Dec-16 10:21 34.211376 -119.223730 126 10979ft 369kts
12-Dec-16 10:22 34.154975 -119.121253 126 10981ft 369kts
12-Dec-16 10:23 34.082473 -119.049900 176 10979ft 343kts
12-Dec-16 10:24 33.989220 -119.036508 181 10982ft 340kts
12-Dec-16 10:25 33.896050 -119.026509 182 10982ft 340kts
12-Dec-16 10:26 33.803240 -119.014730 165 10935ft 351kts
12-Dec-16 10:27 33.732562 -118.930893 133 10982ft 365kts
12-Dec-16 10:28 33.668216 -118.838711 132 10977ft 364kts
12-Dec-16 10:29 33.604513 -118.747304 132 10992ft 363kts
12-Dec-16 10:30 33.540631 -118.655855 132 10993ft 365kts
12-Dec-16 10:31 33.476164 -118.563800 132 10994ft 365kts
12-Dec-16 10:32 33.411552 -118.471772 132 10995ft 366kts
12-Dec-16 10:33 33.368492 -118.365319 99 10998ft 370kts
12-Dec-16 10:34 33.352961 -118.249584 98 10988ft 369kts
12-Dec-16 10:35 33.337143 -118.130027 98 10990ft 370kts
12-Dec-16 10:36 33.321252 -118.010418 98 11009ft 369kts
12-Dec-16 10:37 33.305929 -117.895943 98 10993ft 370kts
12-Dec-16 10:38 33.289836 -117.776570 98 10993ft 370kts
12-Dec-16 10:39 33.272691 -117.660902 99 10928ft 332kts
12-Dec-16 10:40 33.257223 -117.555360 96 8740ft 322kts
12-Dec-16 10:41 33.244803 -117.453456 95 7024ft 299kts
12-Dec-16 10:42 33.236749 -117.355597 91 6997ft 300kts
12-Dec-16 10:43 33.230708 -117.261716 92 6990ft 302kts
12-Dec-16 10:44 33.226868 -117.165908 82 6991ft 300kts
12-Dec-16 10:45 33.232841 -117.071405 81 5468ft 278kts
12-Dec-16 10:46 33.224771 -116.985032 142 4954ft 269kts
12-Dec-16 10:47 33.171588 -116.999457 243 3617ft 197kts
12-Dec-16 10:48 33.165140 -117.047434 266 3497ft 183kts
12-Dec-16 10:49 33.156139 -117.107013 264 3222ft 188kts
12-Dec-16 10:50 33.147181 -117.162760 263 2249ft 155kts
12-Dec-16 10:51 33.139582 -117.209979 261 1439ft 142kts
12-Dec-16 10:52 33.132131 -117.255495 259 676ft 147kts
12-Dec-16 10:53 33.127078 -117.287290 259 301ft 20kts
12-Dec-16 10:54 33.126494 -117.285879 78 306ft 15kts
12-Dec-16 10:55 33.126492 -117.283402 260 311ft 1kts

Navigation Log

Ident Type
Flight plan parsing failed, navigation log unavailable